Time;durP1;ratioP1;P1;durP2;ratioP2;P2;SDS_P1;SDS_P2;PMS_P1;PMS_P2;Temp;Humidity;BMP_temperature;BMP_pressure;BME280_temperature;BME280_humidity;BME280_pressure;Samples;Min_cycle;Max_cycle;Signal;HPM_P1;HPM_P2
2023/08/05 00:02:22;;;;;;;5.60;3.90;;;;;;;;;;5077077;28;20114;-84
2023/08/05 00:04:48;;;;;;;6.70;4.00;;;;;;;;;;5083427;28;20084;-84
2023/08/05 00:07:14;;;;;;;5.35;3.95;;;;;;;;;;5068850;28;20047;-83
2023/08/05 00:09:40;;;;;;;5.82;3.90;;;;;;;;;;5057455;28;20048;-84
2023/08/05 00:12:06;;;;;;;6.03;3.90;;;;;;;;;;5089427;28;20059;-84
2023/08/05 00:14:35;;;;;;;8.25;4.20;;;;;;;;;;5069553;28;20040;-84
2023/08/05 00:17:01;;;;;;;6.50;4.32;;;;;;;;;;5071133;28;20036;-84
2023/08/05 00:19:27;;;;;;;6.25;3.92;;;;;;;;;;5052175;28;20402;-84
2023/08/05 00:21:53;;;;;;;7.43;3.97;;;;;;;;;;5074830;28;20052;-84
2023/08/05 00:24:19;;;;;;;5.07;3.70;;;;;;;;;;5087998;28;20052;-84
2023/08/05 00:26:45;;;;;;;5.40;4.30;;;;;;;;;;5064104;28;20040;-83
2023/08/05 00:29:11;;;;;;;5.32;4.28;;;;;;;;;;5068438;28;20303;-84
2023/08/05 00:31:37;;;;;;;5.65;4.20;;;;;;;;;;5063055;28;20503;-83
2023/08/05 00:34:03;;;;;;;12.88;4.80;;;;;;;;;;5076279;28;20053;-83
2023/08/05 00:36:29;;;;;;;5.18;4.20;;;;;;;;;;5085198;28;20052;-83
2023/08/05 00:38:55;;;;;;;5.05;3.75;;;;;;;;;;5062557;28;20153;-84
2023/08/05 00:41:22;;;;;;;7.22;4.47;;;;;;;;;;5059033;28;20040;-84
2023/08/05 00:43:48;;;;;;;4.13;3.72;;;;;;;;;;5065160;28;20049;-83
2023/08/05 00:46:14;;;;;;;5.70;3.88;;;;;;;;;;5084539;28;20075;-84
2023/08/05 00:48:40;;;;;;;7.28;4.05;;;;;;;;;;5088024;28;20047;-83
2023/08/05 00:51:08;;;;;;;7.03;4.43;;;;;;;;;;5055111;28;20161;-84
2023/08/05 00:53:36;;;;;;;5.47;4.10;;;;;;;;;;5049271;28;20091;-84
2023/08/05 00:56:02;;;;;;;4.25;3.75;;;;;;;;;;5066761;28;20052;-84
2023/08/05 00:58:31;;;;;;;8.02;3.95;;;;;;;;;;5085664;28;20048;-84
2023/08/05 01:00:58;;;;;;;7.63;4.05;;;;;;;;;;5084864;28;20422;-83
2023/08/05 01:03:25;;;;;;;8.00;4.63;;;;;;;;;;5057732;28;20479;-84
2023/08/05 01:05:54;;;;;;;6.57;4.38;;;;;;;;;;5049161;28;20044;-83
2023/08/05 01:08:23;;;;;;;8.70;4.43;;;;;;;;;;5070795;28;20058;-83
2023/08/05 01:10:50;;;;;;;5.68;4.50;;;;;;;;;;5067538;28;20171;-84
2023/08/05 01:13:16;;;;;;;6.07;4.72;;;;;;;;;;5052904;28;20070;-84
2023/08/05 01:15:42;;;;;;;6.75;4.55;;;;;;;;;;5066162;28;20062;-84
2023/08/05 01:18:09;;;;;;;6.47;4.55;;;;;;;;;;5050730;28;20036;-84
2023/08/05 01:20:38;;;;;;;4.93;4.20;;;;;;;;;;5049249;28;20407;-83
2023/08/05 01:23:12;;;;;;;7.93;4.47;;;;;;;;;;5048568;28;20088;-83
2023/08/05 01:25:38;;;;;;;7.38;4.63;;;;;;;;;;5081442;28;20040;-84
2023/08/05 01:28:05;;;;;;;5.97;4.25;;;;;;;;;;5052930;28;20036;-83
2023/08/05 01:30:33;;;;;;;8.05;4.32;;;;;;;;;;5065288;28;20070;-84
2023/08/05 01:33:01;;;;;;;7.00;4.15;;;;;;;;;;5049344;28;20048;-83
2023/08/05 01:35:27;;;;;;;6.60;4.70;;;;;;;;;;5066556;28;20059;-84
2023/08/05 01:37:53;;;;;;;5.15;4.40;;;;;;;;;;5084459;28;20093;-84
2023/08/05 01:40:19;;;;;;;10.50;4.63;;;;;;;;;;5050236;28;20048;-84
2023/08/05 01:42:45;;;;;;;7.15;4.85;;;;;;;;;;5076950;28;20055;-84
2023/08/05 01:45:11;;;;;;;6.72;4.85;;;;;;;;;;5086840;28;20196;-84
2023/08/05 01:47:37;;;;;;;6.20;4.55;;;;;;;;;;5049838;28;20959;-84
2023/08/05 01:50:03;;;;;;;6.65;4.72;;;;;;;;;;5055158;28;20090;-84
2023/08/05 01:52:32;;;;;;;6.80;4.40;;;;;;;;;;5073082;28;20702;-84
2023/08/05 01:54:58;;;;;;;8.55;4.43;;;;;;;;;;5048889;28;20131;-84
2023/08/05 01:57:24;;;;;;;5.68;4.80;;;;;;;;;;5047938;28;20797;-84
2023/08/05 01:59:50;;;;;;;8.25;4.68;;;;;;;;;;5065638;28;20454;-83
2023/08/05 02:02:16;;;;;;;7.75;4.97;;;;;;;;;;5074247;28;20068;-83
2023/08/05 02:04:42;;;;;;;8.27;4.47;;;;;;;;;;5070575;28;20044;-84
2023/08/05 02:07:08;;;;;;;5.03;4.53;;;;;;;;;;5068574;28;20040;-84
2023/08/05 02:09:34;;;;;;;5.75;4.22;;;;;;;;;;5058527;28;20463;-84
2023/08/05 02:12:00;;;;;;;8.43;4.70;;;;;;;;;;5054352;28;20044;-84
2023/08/05 02:14:26;;;;;;;7.28;4.93;;;;;;;;;;5070296;28;20088;-83
2023/08/05 02:16:52;;;;;;;8.05;4.57;;;;;;;;;;5068957;28;20072;-83
2023/08/05 02:19:18;;;;;;;7.18;4.28;;;;;;;;;;5064263;28;20047;-83
2023/08/05 02:21:44;;;;;;;4.78;4.28;;;;;;;;;;5052553;28;20984;-83
2023/08/05 02:24:11;;;;;;;6.57;4.47;;;;;;;;;;5051592;28;20040;-83
2023/08/05 02:26:37;;;;;;;9.35;4.82;;;;;;;;;;5080556;28;20059;-83
2023/08/05 02:29:03;;;;;;;4.90;4.40;;;;;;;;;;5060575;28;20052;-83
2023/08/05 02:31:29;;;;;;;10.75;4.75;;;;;;;;;;5081423;28;20048;-83
2023/08/05 02:33:55;;;;;;;9.57;4.75;;;;;;;;;;5059063;28;20048;-83
2023/08/05 02:36:22;;;;;;;10.07;5.05;;;;;;;;;;5069930;28;20032;-83
2023/08/05 02:38:48;;;;;;;5.63;4.13;;;;;;;;;;5088851;28;20048;-83
2023/08/05 02:41:14;;;;;;;5.93;4.47;;;;;;;;;;5069698;28;20332;-83
2023/08/05 02:43:40;;;;;;;6.05;4.47;;;;;;;;;;5079172;28;20086;-83
2023/08/05 02:46:06;;;;;;;6.80;4.60;;;;;;;;;;5052278;28;20052;-83
2023/08/05 02:48:32;;;;;;;7.68;5.53;;;;;;;;;;5072296;28;20048;-84
2023/08/05 02:50:58;;;;;;;8.70;5.25;;;;;;;;;;5083900;28;20044;-83
2023/08/05 02:53:24;;;;;;;6.25;4.50;;;;;;;;;;5089445;28;20063;-83
2023/08/05 02:55:50;;;;;;;4.97;4.43;;;;;;;;;;5059233;28;20125;-83
2023/08/05 02:58:16;;;;;;;7.60;4.93;;;;;;;;;;5081480;28;20454;-83
2023/08/05 03:00:43;;;;;;;9.25;4.43;;;;;;;;;;5051973;28;20055;-83
2023/08/05 03:03:11;;;;;;;6.82;5.30;;;;;;;;;;5070764;28;20049;-84
2023/08/05 03:05:37;;;;;;;4.97;4.47;;;;;;;;;;5069293;28;20044;-84
2023/08/05 03:08:03;;;;;;;7.55;4.50;;;;;;;;;;5068960;28;20477;-83
2023/08/05 03:10:29;;;;;;;7.38;5.03;;;;;;;;;;5079616;28;20044;-83
2023/08/05 03:12:55;;;;;;;9.15;5.47;;;;;;;;;;5066624;28;20054;-83
2023/08/05 03:15:21;;;;;;;8.18;5.20;;;;;;;;;;5076649;28;20552;-83
2023/08/05 03:17:47;;;;;;;9.65;5.55;;;;;;;;;;5072568;28;20052;-83
2023/08/05 03:20:27;;;;;;;5.90;5.30;;;;;;;;;;5068848;28;20094;-83
2023/08/05 03:22:56;;;;;;;7.03;5.50;;;;;;;;;;5061851;28;20044;-83
2023/08/05 03:25:22;;;;;;;7.63;5.50;;;;;;;;;;5050445;28;20044;-83
2023/08/05 03:27:49;;;;;;;7.60;5.22;;;;;;;;;;5052890;28;20395;-83
2023/08/05 03:33:16;;;;;;;7.53;4.85;;;;;;;;;;4710321;28;20129;-80
2023/08/05 03:35:43;;;;;;;7.30;5.22;;;;;;;;;;4986731;28;20046;-80
2023/08/05 03:38:09;;;;;;;7.90;5.60;;;;;;;;;;4990123;28;20355;-80
2023/08/05 03:40:35;;;;;;;8.30;6.03;;;;;;;;;;4990024;28;20123;-80
2023/08/05 03:43:02;;;;;;;8.20;5.68;;;;;;;;;;4988698;28;20050;-80
2023/08/05 03:45:28;;;;;;;7.70;5.57;;;;;;;;;;4988841;28;20053;-81
2023/08/05 03:47:56;;;;;;;7.85;5.53;;;;;;;;;;4985279;28;20116;-81
2023/08/05 03:50:22;;;;;;;7.85;5.70;;;;;;;;;;4989613;28;20042;-81
2023/08/05 03:52:48;;;;;;;8.27;6.07;;;;;;;;;;4990195;28;20634;-82
2023/08/05 03:55:14;;;;;;;9.02;5.47;;;;;;;;;;4985190;28;20043;-82
2023/08/05 03:57:41;;;;;;;6.35;5.35;;;;;;;;;;4974943;28;20423;-81
2023/08/05 04:00:09;;;;;;;7.13;5.90;;;;;;;;;;4987604;28;20050;-81
2023/08/05 04:02:36;;;;;;;8.00;5.60;;;;;;;;;;4988980;28;20042;-81
2023/08/05 04:05:03;;;;;;;7.82;5.88;;;;;;;;;;4983451;28;20034;-81
2023/08/05 04:07:29;;;;;;;7.13;5.65;;;;;;;;;;4980460;28;20109;-80
2023/08/05 04:09:55;;;;;;;8.45;5.78;;;;;;;;;;4983620;28;20077;-81
2023/08/05 04:12:21;;;;;;;10.63;5.72;;;;;;;;;;4967534;28;20042;-81
2023/08/05 04:14:50;;;;;;;9.13;5.45;;;;;;;;;;4988859;28;20125;-81
2023/08/05 04:17:16;;;;;;;10.43;5.85;;;;;;;;;;4989189;28;20058;-81
2023/08/05 04:19:46;;;;;;;8.85;6.15;;;;;;;;;;4989171;28;20047;-81
2023/08/05 04:22:12;;;;;;;7.47;5.35;;;;;;;;;;4990169;28;20046;-81
2023/08/05 04:24:41;;;;;;;9.57;5.75;;;;;;;;;;4982493;28;20437;-81
2023/08/05 04:27:07;;;;;;;9.10;5.45;;;;;;;;;;4987173;28;20039;-81
2023/08/05 04:29:34;;;;;;;12.60;6.00;;;;;;;;;;4990598;28;20050;-81
2023/08/05 04:32:00;;;;;;;11.55;6.03;;;;;;;;;;4979122;28;20058;-81
2023/08/05 04:34:26;;;;;;;10.35;5.93;;;;;;;;;;4988865;28;20130;-81
2023/08/05 04:36:52;;;;;;;12.13;5.93;;;;;;;;;;4987459;28;20060;-82
2023/08/05 04:39:19;;;;;;;9.13;6.05;;;;;;;;;;4980470;28;20051;-81
2023/08/05 04:41:45;;;;;;;8.50;5.90;;;;;;;;;;4978419;28;20444;-81
2023/08/05 04:44:12;;;;;;;9.30;5.72;;;;;;;;;;4988301;28;20050;-81
2023/08/05 04:46:38;;;;;;;6.43;4.97;;;;;;;;;;4988583;28;20495;-81
2023/08/05 04:49:05;;;;;;;8.05;5.10;;;;;;;;;;4989874;28;20093;-82
2023/08/05 04:51:31;;;;;;;8.57;5.63;;;;;;;;;;4972350;28;20512;-82
2023/08/05 04:53:57;;;;;;;7.30;5.00;;;;;;;;;;4982334;28;20042;-83
2023/08/05 04:56:24;;;;;;;7.00;5.18;;;;;;;;;;4976786;28;20054;-82
2023/08/05 04:58:50;;;;;;;10.23;5.63;;;;;;;;;;4980207;28;20137;-81
2023/08/05 05:01:17;;;;;;;7.35;5.45;;;;;;;;;;4982937;28;20149;-82
2023/08/05 05:03:46;;;;;;;7.57;6.00;;;;;;;;;;4970180;28;20133;-82
2023/08/05 05:06:12;;;;;;;7.25;5.65;;;;;;;;;;4974426;28;20046;-82
2023/08/05 05:08:38;;;;;;;7.88;5.55;;;;;;;;;;4968464;28;20050;-82
2023/08/05 05:11:04;;;;;;;8.15;6.13;;;;;;;;;;4975668;28;20125;-82
2023/08/05 05:13:30;;;;;;;10.45;5.53;;;;;;;;;;4982591;28;20053;-82
2023/08/05 05:15:56;;;;;;;7.43;5.43;;;;;;;;;;4993396;28;20500;-82
2023/08/05 05:18:22;;;;;;;9.05;5.78;;;;;;;;;;4986442;28;20085;-83
2023/08/05 05:20:51;;;;;;;10.73;6.03;;;;;;;;;;4973815;28;20046;-83
2023/08/05 05:23:17;;;;;;;10.82;5.78;;;;;;;;;;4977077;28;20178;-82
2023/08/05 05:25:43;;;;;;;7.78;5.40;;;;;;;;;;4972549;28;20125;-82
2023/08/05 05:28:09;;;;;;;9.93;5.65;;;;;;;;;;4978570;28;20042;-82
2023/08/05 05:30:35;;;;;;;6.63;5.45;;;;;;;;;;4970700;28;20081;-82
2023/08/05 05:33:02;;;;;;;9.20;5.40;;;;;;;;;;4969189;28;20099;-82
2023/08/05 05:35:29;;;;;;;8.23;4.97;;;;;;;;;;4972822;28;20050;-81
2023/08/05 05:37:55;;;;;;;6.47;5.20;;;;;;;;;;4987039;28;20046;-81
2023/08/05 05:40:21;;;;;;;7.43;5.25;;;;;;;;;;4977157;28;20499;-81
2023/08/05 05:42:49;;;;;;;7.65;5.03;;;;;;;;;;4974022;28;20046;-82
2023/08/05 05:45:15;;;;;;;7.47;5.13;;;;;;;;;;4988186;28;20081;-81
2023/08/05 05:47:41;;;;;;;8.65;4.75;;;;;;;;;;4985380;28;20042;-82
2023/08/05 05:50:07;;;;;;;7.88;4.55;;;;;;;;;;4968181;28;20137;-82
2023/08/05 05:52:34;;;;;;;5.15;4.63;;;;;;;;;;4952170;28;20050;-82
2023/08/05 05:55:02;;;;;;;5.93;4.90;;;;;;;;;;4967457;28;20424;-81
2023/08/05 05:57:28;;;;;;;7.20;4.90;;;;;;;;;;4967737;28;20105;-81
2023/08/05 05:59:56;;;;;;;5.63;5.00;;;;;;;;;;4983233;28;20046;-81
2023/08/05 06:02:22;;;;;;;7.68;5.25;;;;;;;;;;4983313;28;20086;-81
2023/08/05 06:04:48;;;;;;;5.30;4.68;;;;;;;;;;4967551;28;20050;-80
2023/08/05 06:07:14;;;;;;;7.80;4.63;;;;;;;;;;4967794;28;20399;-81
2023/08/05 06:09:40;;;;;;;5.47;4.53;;;;;;;;;;4974467;28;20851;-81
2023/08/05 06:12:09;;;;;;;5.95;4.72;;;;;;;;;;4973184;28;20050;-81
2023/08/05 06:14:36;;;;;;;6.10;4.60;;;;;;;;;;4969981;28;20050;-80
2023/08/05 06:17:02;;;;;;;6.25;4.32;;;;;;;;;;4976273;28;20093;-83
2023/08/05 06:19:28;;;;;;;7.65;5.13;;;;;;;;;;4986832;28;20113;-81
2023/08/05 06:21:54;;;;;;;6.13;4.43;;;;;;;;;;4987574;28;20050;-82
2023/08/05 06:24:20;;;;;;;11.18;4.55;;;;;;;;;;4986782;28;20068;-82
2023/08/05 06:26:46;;;;;;;5.47;4.15;;;;;;;;;;4988434;28;20185;-82
2023/08/05 06:29:12;;;;;;;6.72;4.50;;;;;;;;;;4987673;28;20524;-81
2023/08/05 06:31:38;;;;;;;5.30;3.63;;;;;;;;;;4969286;28;20070;-81
2023/08/05 06:34:04;;;;;;;6.10;3.72;;;;;;;;;;4975595;28;20055;-82
2023/08/05 06:36:30;;;;;;;4.68;3.55;;;;;;;;;;4969116;28;20054;-82
2023/08/05 06:38:56;;;;;;;4.28;3.47;;;;;;;;;;4976280;28;20043;-82
2023/08/05 06:41:23;;;;;;;6.78;3.75;;;;;;;;;;4967409;28;20082;-81
2023/08/05 06:43:50;;;;;;;5.90;3.28;;;;;;;;;;4968548;28;20097;-81
2023/08/05 06:46:16;;;;;;;5.18;3.83;;;;;;;;;;4971238;28;20059;-82
2023/08/05 06:48:42;;;;;;;4.20;3.75;;;;;;;;;;4979171;28;20157;-81
2023/08/05 06:51:08;;;;;;;5.63;3.70;;;;;;;;;;4987405;28;20043;-82
2023/08/05 06:53:39;;;;;;;7.07;3.70;;;;;;;;;;4971445;28;20047;-82
2023/08/05 06:56:06;;;;;;;4.45;3.30;;;;;;;;;;4971031;28;20133;-82
2023/08/05 06:58:35;;;;;;;5.63;2.97;;;;;;;;;;4983418;28;20121;-82
2023/08/05 07:01:01;;;;;;;5.05;3.13;;;;;;;;;;4991663;28;20046;-82
2023/08/05 07:03:27;;;;;;;3.65;3.08;;;;;;;;;;4991026;28;20112;-83
2023/08/05 07:05:56;;;;;;;5.18;2.95;;;;;;;;;;4991538;28;20419;-82
2023/08/05 07:08:24;;;;;;;5.90;2.85;;;;;;;;;;4973746;28;20159;-83
2023/08/05 07:10:57;;;;;;;4.38;3.00;;;;;;;;;;4991291;28;20125;-80
2023/08/05 07:13:23;;;;;;;5.65;3.45;;;;;;;;;;4992331;28;20089;-83
2023/08/05 07:15:49;;;;;;;8.25;3.50;;;;;;;;;;4992457;28;20089;-82
2023/08/05 07:18:15;;;;;;;6.22;3.50;;;;;;;;;;4991281;28;20046;-82
2023/08/05 07:20:41;;;;;;;4.80;3.20;;;;;;;;;;4992533;28;20419;-82
2023/08/05 07:23:07;;;;;;;6.65;3.53;;;;;;;;;;4981623;28;20046;-82
2023/08/05 07:25:33;;;;;;;4.85;3.03;;;;;;;;;;4982768;28;20089;-83
2023/08/05 07:27:59;;;;;;;7.03;3.47;;;;;;;;;;4991468;28;20108;-82
2023/08/05 07:30:25;;;;;;;6.53;2.72;;;;;;;;;;4991013;28;20050;-83
2023/08/05 07:32:51;;;;;;;6.43;3.50;;;;;;;;;;4991031;28;20077;-82
2023/08/05 07:35:17;;;;;;;5.88;3.15;;;;;;;;;;4989882;28;20058;-82
2023/08/05 07:37:43;;;;;;;4.15;3.00;;;;;;;;;;4990871;28;20050;-81
2023/08/05 07:40:12;;;;;;;5.10;3.13;;;;;;;;;;4979978;28;20404;-81
2023/08/05 07:42:45;;;;;;;5.70;3.30;;;;;;;;;;4985871;28;20082;-81
2023/08/05 07:45:16;;;;;;;5.97;3.83;;;;;;;;;;4991473;28;20057;-82
2023/08/05 07:47:43;;;;;;;4.68;2.80;;;;;;;;;;4990029;28;20088;-82
2023/08/05 07:50:10;;;;;;;5.78;2.88;;;;;;;;;;4980724;28;20051;-81
2023/08/05 07:52:36;;;;;;;6.40;3.20;;;;;;;;;;4972974;28;20492;-83
2023/08/05 07:55:03;;;;;;;6.85;3.00;;;;;;;;;;4990424;28;20133;-83
2023/08/05 07:57:30;;;;;;;6.20;3.25;;;;;;;;;;4991473;28;20050;-83
2023/08/05 07:59:56;;;;;;;4.20;2.97;;;;;;;;;;4990214;28;20054;-83
2023/08/05 08:02:22;;;;;;;5.75;3.35;;;;;;;;;;4990437;28;20041;-83
2023/08/05 08:04:49;;;;;;;4.88;2.83;;;;;;;;;;4988676;28;20162;-83
2023/08/05 08:07:15;;;;;;;6.90;3.22;;;;;;;;;;4989386;28;20054;-81
2023/08/05 08:09:41;;;;;;;3.38;2.65;;;;;;;;;;4973736;28;20548;-80
2023/08/05 08:12:07;;;;;;;4.00;2.90;;;;;;;;;;4952884;28;20046;-81
2023/08/05 08:14:33;;;;;;;3.20;2.42;;;;;;;;;;4970385;28;20117;-81
2023/08/05 08:16:59;;;;;;;4.20;2.80;;;;;;;;;;4973114;28;20046;-80
2023/08/05 08:19:25;;;;;;;3.53;2.80;;;;;;;;;;4977020;28;20050;-81
2023/08/05 08:21:51;;;;;;;4.45;3.00;;;;;;;;;;4978681;28;20049;-81
2023/08/05 08:24:17;;;;;;;3.28;2.67;;;;;;;;;;4984014;28;20042;-81
2023/08/05 08:26:43;;;;;;;4.57;2.53;;;;;;;;;;4986759;28;20073;-81
2023/08/05 08:29:09;;;;;;;4.47;2.83;;;;;;;;;;4989767;28;20528;-82
2023/08/05 08:31:35;;;;;;;3.47;2.47;;;;;;;;;;4982797;28;20046;-81
2023/08/05 08:34:01;;;;;;;5.43;2.80;;;;;;;;;;4986538;28;20091;-81
2023/08/05 08:36:30;;;;;;;2.63;2.38;;;;;;;;;;4980152;28;20528;-81
2023/08/05 08:38:56;;;;;;;6.50;2.83;;;;;;;;;;4983651;28;20050;-81
2023/08/05 08:41:22;;;;;;;3.67;2.60;;;;;;;;;;4989297;28;20038;-84
2023/08/05 08:43:48;;;;;;;5.40;2.55;;;;;;;;;;4989382;28;20057;-84
2023/08/05 08:46:14;;;;;;;3.17;2.22;;;;;;;;;;4989957;28;20046;-82
2023/08/05 08:48:41;;;;;;;3.53;2.40;;;;;;;;;;4988018;28;20046;-82
2023/08/05 08:51:08;;;;;;;6.72;2.33;;;;;;;;;;4986733;28;20130;-82
2023/08/05 08:53:34;;;;;;;2.83;2.10;;;;;;;;;;4969418;28;20053;-82
2023/08/05 08:56:00;;;;;;;4.90;2.45;;;;;;;;;;4986512;28;20051;-83
2023/08/05 08:58:26;;;;;;;3.58;2.00;;;;;;;;;;4974311;28;20047;-82
2023/08/05 09:00:53;;;;;;;3.50;2.25;;;;;;;;;;4987663;28;20057;-83
2023/08/05 09:03:21;;;;;;;3.80;2.40;;;;;;;;;;4971432;28;20150;-83
2023/08/05 09:05:56;;;;;;;3.67;2.30;;;;;;;;;;4969018;28;20146;-82
2023/08/05 09:08:22;;;;;;;4.32;2.25;;;;;;;;;;4968384;28;20102;-82
2023/08/05 09:10:48;;;;;;;4.38;1.85;;;;;;;;;;4987956;28;20538;-82
2023/08/05 09:13:19;;;;;;;4.93;2.42;;;;;;;;;;4986829;28;20057;-82
2023/08/05 09:15:46;;;;;;;3.65;2.58;;;;;;;;;;4971420;28;20104;-81
2023/08/05 09:18:12;;;;;;;4.85;2.60;;;;;;;;;;4987603;28;20054;-82
2023/08/05 09:20:38;;;;;;;5.30;2.00;;;;;;;;;;4988725;28;20043;-82
2023/08/05 09:23:05;;;;;;;4.63;2.30;;;;;;;;;;4987363;28;20158;-82
2023/08/05 09:25:32;;;;;;;3.25;2.38;;;;;;;;;;4983347;28;20267;-83
2023/08/05 09:28:00;;;;;;;3.80;1.90;;;;;;;;;;4969156;28;20062;-83
2023/08/05 09:30:27;;;;;;;3.88;1.98;;;;;;;;;;4986017;28;20050;-85
2023/08/05 09:32:56;;;;;;;2.53;2.00;;;;;;;;;;4988367;28;20066;-85
2023/08/05 09:35:24;;;;;;;3.58;2.13;;;;;;;;;;4986412;28;20160;-84
2023/08/05 09:37:51;;;;;;;3.15;2.00;;;;;;;;;;4988370;28;20662;-84
2023/08/05 09:40:41;;;;;;;2.38;1.95;;;;;;;;;;4988085;28;20042;-84
2023/08/05 09:43:08;;;;;;;2.53;1.98;;;;;;;;;;4988428;28;20054;-83
2023/08/05 09:45:35;;;;;;;4.50;1.98;;;;;;;;;;4968381;28;20134;-85
2023/08/05 09:48:06;;;;;;;3.78;2.33;;;;;;;;;;4966169;28;20057;-85
2023/08/05 09:50:36;;;;;;;3.53;1.85;;;;;;;;;;4982246;28;20058;-87
2023/08/05 09:53:04;;;;;;;4.55;1.88;;;;;;;;;;4978243;28;20126;-87
2023/08/05 09:55:32;;;;;;;4.50;2.30;;;;;;;;;;4984589;28;20053;-86
2023/08/05 09:57:58;;;;;;;2.63;2.00;;;;;;;;;;4988498;28;20054;-82
2023/08/05 10:00:25;;;;;;;3.08;2.10;;;;;;;;;;4988428;28;21021;-81
2023/08/05 10:02:51;;;;;;;4.57;1.73;;;;;;;;;;4987011;28;20078;-82
2023/08/05 10:05:17;;;;;;;4.22;2.13;;;;;;;;;;4981377;28;20050;-83
2023/08/05 10:07:43;;;;;;;3.90;2.28;;;;;;;;;;4977464;28;20142;-81
2023/08/05 10:10:12;;;;;;;3.55;2.13;;;;;;;;;;4976709;28;20061;-81
2023/08/05 10:12:46;;;;;;;4.38;1.95;;;;;;;;;;4969196;28;20496;-80
2023/08/05 10:15:19;;;;;;;2.42;1.90;;;;;;;;;;4981976;28;20042;-80
2023/08/05 10:17:45;;;;;;;4.47;1.80;;;;;;;;;;4976474;28;20385;-81
2023/08/05 10:20:12;;;;;;;5.13;2.30;;;;;;;;;;4982089;28;20042;-81
2023/08/05 10:22:42;;;;;;;2.97;2.13;;;;;;;;;;4985020;28;20144;-81
2023/08/05 10:25:08;;;;;;;4.22;2.63;;;;;;;;;;4981197;28;20050;-81
2023/08/05 10:27:34;;;;;;;5.90;2.28;;;;;;;;;;4973637;28;20046;-83
2023/08/05 10:30:10;;;;;;;2.97;2.10;;;;;;;;;;4981056;28;20407;-82
2023/08/05 10:32:48;;;;;;;3.63;1.95;;;;;;;;;;4984227;28;20054;-82
2023/08/05 10:35:39;;;;;;;3.63;1.90;;;;;;;;;;4980683;28;20057;-81
2023/08/05 10:38:08;;;;;;;3.20;2.00;;;;;;;;;;4983498;28;20054;-81
2023/08/05 10:41:00;;;;;;;3.42;2.38;;;;;;;;;;4991528;28;20046;-81
2023/08/05 10:43:32;;;;;;;3.53;2.28;;;;;;;;;;4990393;28;20050;-82
2023/08/05 10:45:59;;;;;;;4.55;2.47;;;;;;;;;;4989608;28;20133;-82
2023/08/05 10:48:30;;;;;;;3.53;2.53;;;;;;;;;;4991318;28;20050;-81
2023/08/05 10:50:56;;;;;;;3.22;2.58;;;;;;;;;;4991624;28;20050;-81
2023/08/05 10:53:23;;;;;;;2.90;2.70;;;;;;;;;;4990205;28;20416;-81
2023/08/05 10:55:56;;;;;;;4.85;2.60;;;;;;;;;;4990431;28;20042;-82
2023/08/05 10:58:23;;;;;;;3.80;2.80;;;;;;;;;;4988550;28;20051;-82
2023/08/05 11:01:05;;;;;;;6.05;3.05;;;;;;;;;;4974052;28;20046;-81
2023/08/05 11:03:41;;;;;;;8.95;3.15;;;;;;;;;;4991299;28;20531;-80
2023/08/05 11:06:07;;;;;;;4.22;2.70;;;;;;;;;;4991511;28;20085;-81
2023/08/05 11:08:35;;;;;;;3.22;2.83;;;;;;;;;;4988527;28;20046;-81
2023/08/05 11:11:02;;;;;;;2.60;2.35;;;;;;;;;;4988582;28;20093;-81
2023/08/05 11:13:32;;;;;;;10.57;2.63;;;;;;;;;;4987093;28;20047;-81
2023/08/05 11:16:05;;;;;;;4.05;2.33;;;;;;;;;;4988997;28;20115;-80
2023/08/05 11:18:31;;;;;;;3.10;2.50;;;;;;;;;;4991341;28;20105;-82
2023/08/05 11:20:58;;;;;;;4.68;2.67;;;;;;;;;;4991701;28;20137;-80
2023/08/05 11:23:27;;;;;;;3.85;3.17;;;;;;;;;;4989673;28;20500;-80
2023/08/05 11:25:53;;;;;;;4.05;3.65;;;;;;;;;;4982916;28;20038;-81
2023/08/05 11:28:19;;;;;;;4.75;3.47;;;;;;;;;;4985486;28;20046;-81
2023/08/05 11:30:45;;;;;;;4.47;3.50;;;;;;;;;;4977542;28;20090;-81
2023/08/05 11:33:11;;;;;;;4.00;3.70;;;;;;;;;;4969296;28;20063;-81
2023/08/05 11:35:48;;;;;;;4.38;3.97;;;;;;;;;;4970839;28;20759;-82
2023/08/05 11:38:17;;;;;;;4.57;4.18;;;;;;;;;;4969365;28;20124;-83
2023/08/05 11:40:44;;;;;;;5.78;4.80;;;;;;;;;;4979179;28;20053;-82
2023/08/05 11:43:11;;;;;;;5.95;5.20;;;;;;;;;;4988920;28;20137;-81
2023/08/05 11:45:39;;;;;;;6.45;5.53;;;;;;;;;;4982905;28;20145;-82
2023/08/05 11:48:05;;;;;;;7.78;5.90;;;;;;;;;;4984651;28;20125;-81
2023/08/05 11:50:35;;;;;;;7.45;5.93;;;;;;;;;;4971594;28;20117;-82
2023/08/05 11:53:04;;;;;;;6.35;5.82;;;;;;;;;;4971377;28;20489;-82
2023/08/05 11:55:35;;;;;;;6.05;5.43;;;;;;;;;;4970331;28;20063;-81
2023/08/05 11:58:03;;;;;;;6.15;5.55;;;;;;;;;;4972428;28;20054;-82
2023/08/05 12:00:29;;;;;;;7.03;6.32;;;;;;;;;;4973741;28;20051;-79
2023/08/05 12:02:55;;;;;;;7.45;6.75;;;;;;;;;;4989448;28;20077;-82
2023/08/05 12:05:22;;;;;;;8.38;6.38;;;;;;;;;;4987066;28;20085;-81
2023/08/05 12:07:48;;;;;;;8.20;6.55;;;;;;;;;;4984735;28;20054;-80
2023/08/05 12:10:16;;;;;;;8.27;7.47;;;;;;;;;;4977374;28;20047;-82
2023/08/05 12:12:51;;;;;;;8.63;7.70;;;;;;;;;;4979749;28;20125;-82
2023/08/05 12:15:24;;;;;;;8.60;7.80;;;;;;;;;;4988510;28;20061;-81
2023/08/05 12:17:55;;;;;;;8.95;7.95;;;;;;;;;;4989055;28;20065;-81
2023/08/05 12:20:25;;;;;;;9.23;8.00;;;;;;;;;;4953693;28;20053;-82
2023/08/05 12:22:52;;;;;;;10.55;9.45;;;;;;;;;;4967139;28;20073;-82
2023/08/05 12:25:18;;;;;;;9.80;8.90;;;;;;;;;;4969694;28;20055;-81
2023/08/05 12:27:44;;;;;;;10.50;9.50;;;;;;;;;;4958361;28;20055;-81
2023/08/05 12:30:11;;;;;;;11.27;10.18;;;;;;;;;;4969861;28;20050;-81
2023/08/05 12:32:37;;;;;;;11.55;10.45;;;;;;;;;;4968755;28;20058;-83
2023/08/05 12:35:07;;;;;;;11.95;10.88;;;;;;;;;;4970548;28;20129;-83
2023/08/05 12:37:39;;;;;;;12.98;11.63;;;;;;;;;;4970076;28;20054;-83
2023/08/05 12:40:12;;;;;;;12.23;10.93;;;;;;;;;;4971841;28;20043;-83
2023/08/05 12:42:38;;;;;;;11.68;10.68;;;;;;;;;;4988029;28;20076;-83
2023/08/05 12:45:05;;;;;;;13.50;10.60;;;;;;;;;;4987969;28;20050;-81
2023/08/05 12:47:31;;;;;;;11.88;10.75;;;;;;;;;;4972046;28;20424;-83
2023/08/05 12:49:57;;;;;;;12.35;11.10;;;;;;;;;;4988880;28;20503;-82
2023/08/05 12:52:23;;;;;;;12.40;11.10;;;;;;;;;;4989555;28;20050;-83
2023/08/05 12:54:49;;;;;;;11.10;10.20;;;;;;;;;;4987580;28;20050;-82
2023/08/05 12:57:16;;;;;;;11.10;10.10;;;;;;;;;;4989725;28;20059;-82
2023/08/05 12:59:42;;;;;;;11.32;10.30;;;;;;;;;;4969925;28;20085;-83
2023/08/05 13:02:07;;;;;;;10.82;9.80;;;;;;;;;;4989036;28;20050;-86
2023/08/05 13:04:34;;;;;;;10.85;9.75;;;;;;;;;;4987092;28;20054;-84
2023/08/05 13:07:00;;;;;;;10.75;9.75;;;;;;;;;;4989243;28;20780;-83
2023/08/05 13:09:26;;;;;;;10.93;9.88;;;;;;;;;;4976839;28;20093;-83
2023/08/05 13:11:52;;;;;;;11.15;9.98;;;;;;;;;;4979602;28;20050;-85
2023/08/05 13:14:18;;;;;;;10.60;9.50;;;;;;;;;;4985263;28;20488;-83
2023/08/05 13:16:44;;;;;;;11.63;9.98;;;;;;;;;;4985941;28;20042;-82
2023/08/05 13:19:10;;;;;;;9.95;8.95;;;;;;;;;;4979484;28;20056;-83
2023/08/05 13:21:36;;;;;;;10.27;9.27;;;;;;;;;;4977432;28;20100;-84
2023/08/05 13:24:03;;;;;;;10.30;9.23;;;;;;;;;;4978128;28;20138;-84
2023/08/05 13:26:30;;;;;;;9.43;8.48;;;;;;;;;;4975509;28;20714;-83
2023/08/05 13:28:56;;;;;;;13.18;10.05;;;;;;;;;;4978472;28;20613;-82
2023/08/05 13:31:25;;;;;;;9.98;9.00;;;;;;;;;;4987073;28;20057;-83
2023/08/05 13:33:51;;;;;;;10.50;9.18;;;;;;;;;;4988446;28;20066;-84
2023/08/05 13:36:17;;;;;;;9.63;8.68;;;;;;;;;;4978974;28;20378;-83
2023/08/05 13:38:44;;;;;;;10.63;8.05;;;;;;;;;;4971382;28;20077;-82
2023/08/05 13:41:10;;;;;;;8.23;7.35;;;;;;;;;;4986848;28;20133;-82
2023/08/05 13:43:36;;;;;;;9.90;8.52;;;;;;;;;;4984676;28;20137;-83
2023/08/05 13:46:02;;;;;;;10.50;8.23;;;;;;;;;;4972954;28;20108;-83
2023/08/05 13:48:31;;;;;;;13.98;9.60;;;;;;;;;;4986157;28;20567;-83
2023/08/05 13:51:04;;;;;;;11.45;9.25;;;;;;;;;;4987002;28;20469;-82
2023/08/05 13:53:30;;;;;;;10.90;9.45;;;;;;;;;;4986789;28;20050;-82
2023/08/05 13:55:57;;;;;;;11.13;10.05;;;;;;;;;;4987634;28;20097;-83
2023/08/05 13:58:23;;;;;;;11.60;10.48;;;;;;;;;;4985133;28;20061;-84
2023/08/05 14:00:49;;;;;;;12.13;9.88;;;;;;;;;;4986085;28;20054;-83
2023/08/05 14:03:15;;;;;;;10.20;9.20;;;;;;;;;;4969216;28;20062;-84
2023/08/05 14:05:41;;;;;;;10.35;9.45;;;;;;;;;;4967054;28;20047;-84
2023/08/05 14:08:07;;;;;;;11.10;10.10;;;;;;;;;;4979870;28;20052;-83
2023/08/05 14:10:33;;;;;;;11.25;10.18;;;;;;;;;;4987417;28;20463;-83
2023/08/05 14:12:59;;;;;;;10.48;9.48;;;;;;;;;;4988409;28;20057;-82
2023/08/05 14:15:25;;;;;;;10.82;9.40;;;;;;;;;;4984535;28;20057;-83
2023/08/05 14:17:51;;;;;;;11.15;10.05;;;;;;;;;;4967619;28;20799;-82
2023/08/05 14:20:19;;;;;;;10.75;9.50;;;;;;;;;;4967061;28;20050;-82
2023/08/05 14:22:45;;;;;;;10.52;9.50;;;;;;;;;;4969345;28;20098;-83
2023/08/05 14:25:11;;;;;;;5.28;4.72;;;;;;;;;;4967988;28;20093;-85
2023/08/05 14:27:37;;;;;;;3.28;2.85;;;;;;;;;;4972031;28;20550;-87
2023/08/05 14:30:03;;;;;;;1.88;1.70;;;;;;;;;;4970926;28;20047;-84
2023/08/05 14:32:29;;;;;;;2.33;2.10;;;;;;;;;;4980228;28;20066;-85
2023/08/05 14:34:55;;;;;;;7.57;2.70;;;;;;;;;;4983059;28;20058;-88
2023/08/05 14:37:21;;;;;;;5.20;2.70;;;;;;;;;;4976231;28;20039;-87
2023/08/05 14:39:47;;;;;;;4.68;2.78;;;;;;;;;;4982832;28;20097;-84
2023/08/05 14:42:13;;;;;;;5.82;3.00;;;;;;;;;;4988043;28;20186;-85
2023/08/05 14:44:42;;;;;;;4.95;2.80;;;;;;;;;;4983142;28;20560;-85